createdAt,value
2019-02-26T00:00:22.260Z,3.17
2019-02-26T00:01:23.437Z,3.16
2019-02-26T00:02:21.583Z,3.17
2019-02-26T00:03:23.921Z,3.19
2019-02-26T00:04:24.681Z,3.15
2019-02-26T00:05:23.454Z,3.13
2019-02-26T00:06:24.851Z,3.17
2019-02-26T00:07:24.921Z,3.16
2019-02-26T00:08:23.902Z,3.07
2019-02-26T00:09:22.630Z,3.05
2019-02-26T00:10:24.770Z,3.12
2019-02-26T00:11:24.375Z,3.16
2019-02-26T00:12:22.276Z,3.17
2019-02-26T00:13:23.426Z,3.17
2019-02-26T00:14:22.590Z,3.39
2019-02-26T00:15:22.055Z,3.37
2019-02-26T00:16:22.107Z,3.45
2019-02-26T00:17:22.159Z,3.49
2019-02-26T00:18:23.562Z,3.52
2019-02-26T00:19:22.263Z,3.50
2019-02-26T00:20:22.316Z,3.49
2019-02-26T00:21:24.298Z,3.53
2019-02-26T00:22:22.418Z,3.46
2019-02-26T00:23:23.706Z,3.41
2019-02-26T00:24:22.523Z,3.46
2019-02-26T00:25:22.577Z,3.49
2019-02-26T00:26:22.634Z,3.45
2019-02-26T00:27:23.453Z,3.42
2019-02-26T00:28:22.730Z,3.42
2019-02-26T00:29:23.320Z,3.34
2019-02-26T00:30:22.833Z,3.37
2019-02-26T00:31:24.294Z,3.33
2019-02-26T00:32:22.936Z,3.26
2019-02-26T00:33:24.658Z,3.25
2019-02-26T00:34:23.040Z,3.22
2019-02-26T00:35:24.958Z,3.01
2019-02-26T00:36:23.143Z,2.98
2019-02-26T00:37:24.253Z,3.04
2019-02-26T00:38:23.247Z,3.15
2019-02-26T00:39:24.946Z,3.08
2019-02-26T00:40:23.349Z,3.05
2019-02-26T00:41:24.658Z,3.17
2019-02-26T00:42:24.262Z,3.37
2019-02-26T00:43:25.576Z,3.44
2019-02-26T00:44:25.233Z,3.46
2019-02-26T00:45:26.785Z,3.57
2019-02-26T00:46:24.239Z,3.53
2019-02-26T00:47:23.710Z,3.68
2019-02-26T00:48:23.763Z,3.68
2019-02-26T00:49:25.803Z,3.71
2019-02-26T00:50:23.868Z,3.71
2019-02-26T00:51:24.826Z,3.72
2019-02-26T00:52:23.967Z,3.53
2019-02-26T00:53:25.858Z,3.41
2019-02-26T00:54:26.279Z,3.41
2019-02-26T00:55:27.317Z,3.23
2019-02-26T00:56:25.251Z,3.30
2019-02-26T00:57:27.174Z,3.17
2019-02-26T00:58:24.277Z,3.22
2019-02-26T00:59:24.328Z,3.15
2019-02-26T01:00:26.306Z,3.13
2019-02-26T01:01:24.432Z,3.02
2019-02-26T01:02:24.483Z,3.01
2019-02-26T01:03:24.535Z,2.89
2019-02-26T01:04:24.587Z,2.89
2019-02-26T01:05:24.637Z,2.76
2019-02-26T01:06:26.751Z,2.63
2019-02-26T01:07:26.038Z,2.62
2019-02-26T01:08:24.790Z,2.62
2019-02-26T01:09:25.574Z,2.61
2019-02-26T01:10:24.894Z,2.73
2019-02-26T01:11:25.932Z,2.84
2019-02-26T01:12:24.998Z,2.76
2019-02-26T01:13:27.631Z,2.76
2019-02-26T01:14:25.100Z,2.81
2019-02-26T01:15:25.150Z,2.84
2019-02-26T01:16:25.201Z,2.80
2019-02-26T01:17:25.254Z,2.69
2019-02-26T01:18:26.776Z,2.56
2019-02-26T01:19:25.356Z,2.45
2019-02-26T01:20:27.506Z,2.51
2019-02-26T01:21:28.195Z,2.51
2019-02-26T01:22:25.510Z,2.56
2019-02-26T01:23:26.796Z,2.55
2019-02-26T01:24:26.011Z,2.44
2019-02-26T01:25:25.664Z,2.48
2019-02-26T01:26:27.837Z,2.38
2019-02-26T01:27:25.765Z,2.48
2019-02-26T01:28:27.058Z,2.48
2019-02-26T01:29:27.629Z,2.45
2019-02-26T01:30:27.147Z,2.51
2019-02-26T01:31:27.384Z,2.41
2019-02-26T01:32:26.021Z,2.45
2019-02-26T01:33:27.819Z,2.51
2019-02-26T01:34:26.125Z,2.53
2019-02-26T01:35:28.208Z,2.61
2019-02-26T01:36:26.229Z,2.55
2019-02-26T01:37:27.850Z,2.53
2019-02-26T01:38:26.330Z,2.51
2019-02-26T01:39:26.380Z,2.51
2019-02-26T01:40:26.432Z,2.47
2019-02-26T01:41:27.339Z,2.48
2019-02-26T01:42:27.107Z,2.45
2019-02-26T01:43:26.585Z,2.47
2019-02-26T01:44:30.420Z,2.36
2019-02-26T01:45:28.102Z,2.33
2019-02-26T01:46:26.739Z,2.27
2019-02-26T01:47:28.520Z,2.29
2019-02-26T01:48:26.841Z,2.26
2019-02-26T01:49:28.499Z,2.29
2019-02-26T01:50:28.328Z,2.26
2019-02-26T01:51:28.611Z,2.27
2019-02-26T01:52:27.043Z,2.20
2019-02-26T01:53:27.411Z,2.22
2019-02-26T01:54:28.291Z,2.15
2019-02-26T01:55:27.687Z,2.26
2019-02-26T01:56:27.249Z,2.20
2019-02-26T01:57:27.841Z,2.23
2019-02-26T01:58:27.351Z,2.09
2019-02-26T01:59:27.401Z,2.08
2019-02-26T02:00:27.453Z,2.18
2019-02-26T02:01:27.504Z,2.19
2019-02-26T02:02:28.421Z,2.19
2019-02-26T02:03:28.417Z,2.22
2019-02-26T02:04:27.656Z,2.14
2019-02-26T02:05:29.477Z,2.12
2019-02-26T02:06:27.767Z,2.08
2019-02-26T02:07:28.702Z,2.09
2019-02-26T02:08:27.865Z,2.05
2019-02-26T02:09:27.912Z,2.09
2019-02-26T02:10:27.962Z,2.14
2019-02-26T02:11:29.399Z,2.00
2019-02-26T02:12:30.095Z,1.90
2019-02-26T02:13:28.755Z,1.88
2019-02-26T02:14:28.165Z,2.01
2019-02-26T02:15:28.216Z,2.07
2019-02-26T02:16:29.612Z,2.11
2019-02-26T02:17:28.850Z,2.14
2019-02-26T02:18:29.899Z,2.19
2019-02-26T02:19:30.183Z,2.32
2019-02-26T02:20:28.471Z,2.29
2019-02-26T02:21:30.949Z,2.27
2019-02-26T02:22:29.567Z,2.08
2019-02-26T02:23:30.358Z,2.04
2019-02-26T02:24:28.674Z,1.98
2019-02-26T02:25:31.043Z,2.01
2019-02-26T02:26:28.778Z,2.01
2019-02-26T02:27:31.040Z,2.02
2019-02-26T02:28:30.976Z,2.05
2019-02-26T02:29:28.930Z,2.00
2019-02-26T02:30:31.465Z,2.12
2019-02-26T02:31:31.377Z,2.15
2019-02-26T02:32:31.759Z,2.26
2019-02-26T02:33:30.091Z,2.37
2019-02-26T02:34:30.180Z,2.38
2019-02-26T02:35:29.241Z,2.47
2019-02-26T02:36:29.300Z,2.36
2019-02-26T02:37:30.096Z,2.40
2019-02-26T02:38:29.387Z,2.53
2019-02-26T02:39:29.437Z,2.48
2019-02-26T02:40:29.491Z,2.47
2019-02-26T02:41:29.545Z,2.55
2019-02-26T02:42:29.591Z,2.51
2019-02-26T02:43:29.643Z,2.55
2019-02-26T02:44:29.693Z,2.56
2019-02-26T02:45:29.754Z,2.73
2019-02-26T02:46:29.795Z,2.65
2019-02-26T02:47:31.634Z,2.61
2019-02-26T02:48:29.897Z,2.59
2019-02-26T02:49:32.549Z,2.48
2019-02-26T02:50:29.996Z,2.45
2019-02-26T02:51:31.340Z,2.55
2019-02-26T02:52:32.306Z,2.50
2019-02-26T02:53:32.186Z,2.48
2019-02-26T02:54:30.200Z,2.50
2019-02-26T02:55:30.249Z,2.53
2019-02-26T02:56:30.841Z,2.53
2019-02-26T02:57:32.639Z,2.44
2019-02-26T02:58:30.405Z,2.51
2019-02-26T02:59:30.991Z,2.53
2019-02-26T03:00:32.212Z,2.45
2019-02-26T03:01:30.553Z,2.18
2019-02-26T03:02:30.603Z,2.07
2019-02-26T03:03:30.653Z,2.00
2019-02-26T03:04:33.959Z,2.04
2019-02-26T03:05:32.089Z,2.01
2019-02-26T03:06:32.596Z,1.85
2019-02-26T03:07:30.857Z,1.89
2019-02-26T03:08:30.909Z,1.85
2019-02-26T03:09:31.787Z,1.83
2019-02-26T03:10:34.012Z,1.77
2019-02-26T03:11:36.039Z,1.71
2019-02-26T03:12:31.109Z,1.68
2019-02-26T03:13:31.160Z,1.65
2019-02-26T03:14:34.026Z,1.60
2019-02-26T03:15:33.727Z,1.65
2019-02-26T03:16:31.313Z,1.64
2019-02-26T03:17:31.368Z,1.65
2019-02-26T03:18:31.415Z,1.57
2019-02-26T03:19:32.673Z,1.60
2019-02-26T03:20:35.586Z,1.60
2019-02-26T03:21:31.564Z,1.61
2019-02-26T03:22:33.364Z,1.68
2019-02-26T03:23:33.799Z,1.72
2019-02-26T03:24:33.842Z,1.67
2019-02-26T03:25:31.766Z,1.67
2019-02-26T03:26:31.820Z,1.64
2019-02-26T03:27:34.134Z,1.67
2019-02-26T03:28:34.839Z,1.70
2019-02-26T03:29:31.969Z,1.64
2019-02-26T03:30:38.237Z,1.65
2019-02-26T03:31:34.926Z,1.56
2019-02-26T03:32:32.121Z,1.57
2019-02-26T03:33:32.177Z,1.60
2019-02-26T03:34:32.222Z,1.54
2019-02-26T03:35:32.270Z,1.63
2019-02-26T03:36:34.244Z,1.60
2019-02-26T03:37:34.658Z,1.68
2019-02-26T03:38:32.422Z,1.63
2019-02-26T03:39:32.478Z,1.64
2019-02-26T03:40:34.090Z,1.60
2019-02-26T03:41:32.573Z,1.67
2019-02-26T03:42:33.454Z,1.60
2019-02-26T03:43:34.212Z,1.56
2019-02-26T03:44:32.724Z,1.52
2019-02-26T03:45:32.775Z,1.35
2019-02-26T03:46:32.826Z,1.49
2019-02-26T03:47:32.875Z,1.52
2019-02-26T03:48:32.924Z,1.52
2019-02-26T03:49:32.975Z,1.49
2019-02-26T03:50:33.026Z,1.53
2019-02-26T03:51:33.077Z,1.74
2019-02-26T03:52:33.127Z,1.71
2019-02-26T03:53:34.302Z,1.86
2019-02-26T03:54:33.228Z,1.86
2019-02-26T03:55:35.661Z,1.88
2019-02-26T03:56:33.331Z,1.72
2019-02-26T03:57:33.379Z,1.71
2019-02-26T03:58:33.429Z,1.68
2019-02-26T03:59:33.478Z,1.54
2019-02-26T04:00:34.679Z,1.52
2019-02-26T04:01:33.581Z,1.56
2019-02-26T04:02:33.631Z,1.46
2019-02-26T04:03:35.301Z,1.53
2019-02-26T04:04:33.812Z,1.44
2019-02-26T04:05:33.804Z,1.31
2019-02-26T04:06:35.991Z,1.31
2019-02-26T04:07:35.841Z,1.28
2019-02-26T04:08:33.934Z,1.28
2019-02-26T04:09:34.292Z,1.32
2019-02-26T04:10:34.038Z,1.26
2019-02-26T04:11:34.083Z,1.29
2019-02-26T04:12:39.269Z,1.32
2019-02-26T04:13:34.186Z,1.34
2019-02-26T04:15:16.667Z,1.29
2019-02-26T04:16:16.718Z,1.21
2019-02-26T04:18:39.309Z,1.14
2019-02-26T04:19:43.549Z,1.24
2019-02-26T04:20:43.407Z,1.47
2019-02-26T04:21:39.458Z,1.53
2019-02-26T04:22:43.155Z,1.43
2019-02-26T04:23:41.553Z,1.26
2019-02-26T04:24:39.609Z,1.28
2019-02-26T04:25:39.659Z,1.31
2019-02-26T04:26:39.711Z,1.25
2019-02-26T04:27:41.357Z,1.25
2019-02-26T04:28:42.352Z,1.26
2019-02-26T04:29:40.780Z,1.21
2019-02-26T04:30:41.636Z,1.34
2019-02-26T04:31:41.507Z,1.36
2019-02-26T04:32:40.866Z,1.14
2019-02-26T04:33:41.394Z,1.14
2019-02-26T04:34:40.111Z,1.11
2019-02-26T04:35:41.958Z,1.16
2019-02-26T04:36:42.256Z,1.24
2019-02-26T04:37:40.260Z,1.21
2019-02-26T04:38:40.321Z,1.26
2019-02-26T04:39:42.926Z,1.34
2019-02-26T04:40:40.967Z,1.49
2019-02-26T04:41:40.461Z,1.53
2019-02-26T04:42:42.879Z,1.47
2019-02-26T04:43:40.560Z,1.52
2019-02-26T04:44:40.610Z,1.53
2019-02-26T04:45:40.659Z,1.61
2019-02-26T04:46:40.709Z,1.63
2019-02-26T04:47:41.012Z,1.63
2019-02-26T04:48:40.811Z,1.67
2019-02-26T04:49:43.039Z,1.50
2019-02-26T04:50:41.480Z,1.35
2019-02-26T04:51:42.686Z,1.29
2019-02-26T04:52:43.461Z,1.29
2019-02-26T04:53:41.058Z,1.26
2019-02-26T04:54:41.109Z,1.25
2019-02-26T04:55:42.075Z,1.28
2019-02-26T04:56:42.837Z,1.24
2019-02-26T04:57:43.357Z,1.29
2019-02-26T04:58:42.470Z,1.36
2019-02-26T04:59:43.879Z,1.29
2019-02-26T05:00:41.443Z,1.25
2019-02-26T05:01:41.459Z,1.18
2019-02-26T05:02:41.520Z,1.28
2019-02-26T05:03:41.561Z,1.36
2019-02-26T05:04:42.203Z,1.39
2019-02-26T05:05:41.660Z,1.32
2019-02-26T05:06:41.713Z,1.31
2019-02-26T05:07:44.461Z,1.26
2019-02-26T05:08:42.879Z,1.24
2019-02-26T05:09:41.858Z,1.25
2019-02-26T05:10:41.910Z,1.17
2019-02-26T05:11:41.959Z,1.17
2019-02-26T05:12:42.011Z,1.16
2019-02-26T05:13:42.060Z,1.14
2019-02-26T05:14:42.110Z,1.18
2019-02-26T05:15:43.515Z,1.34
2019-02-26T05:16:42.212Z,1.24
2019-02-26T05:17:42.263Z,1.29
2019-02-26T05:18:44.446Z,1.36
2019-02-26T05:19:45.941Z,1.44
2019-02-26T05:20:44.654Z,1.49
2019-02-26T05:21:42.461Z,1.52
2019-02-26T05:22:42.515Z,1.52
2019-02-26T05:23:42.562Z,1.47
2019-02-26T05:24:44.801Z,1.49
2019-02-26T05:25:44.822Z,1.49
2019-02-26T05:26:42.712Z,1.42
2019-02-26T05:27:45.230Z,1.42
2019-02-26T05:28:44.351Z,1.46
2019-02-26T05:29:43.492Z,1.42
2019-02-26T05:30:43.847Z,1.36
2019-02-26T05:31:43.270Z,1.46
2019-02-26T05:32:43.014Z,1.42
2019-02-26T05:33:43.064Z,1.35
2019-02-26T05:34:45.462Z,1.42
2019-02-26T05:35:46.005Z,1.32
2019-02-26T05:36:46.048Z,1.39
2019-02-26T05:37:43.264Z,1.28
2019-02-26T05:38:43.320Z,1.34
2019-02-26T05:39:45.893Z,1.31
2019-02-26T05:40:45.196Z,1.42
2019-02-26T05:41:43.468Z,1.34
2019-02-26T05:42:43.523Z,1.28
2019-02-26T05:43:49.457Z,1.36
2019-02-26T05:44:43.617Z,1.31
2019-02-26T05:45:43.666Z,1.31
2019-02-26T05:46:43.729Z,1.35
2019-02-26T05:47:46.023Z,1.24
2019-02-26T05:48:45.701Z,1.34
2019-02-26T05:49:45.795Z,1.20
2019-02-26T05:50:44.725Z,1.31
2019-02-26T05:51:43.971Z,1.31
2019-02-26T05:52:44.044Z,1.25
2019-02-26T05:53:44.070Z,1.36
2019-02-26T05:54:44.116Z,1.34
2019-02-26T05:55:47.482Z,1.32
2019-02-26T05:56:46.196Z,1.35
2019-02-26T05:57:44.269Z,1.32
2019-02-26T05:58:46.969Z,1.31
2019-02-26T05:59:44.366Z,1.32
2019-02-26T06:00:44.418Z,1.38
2019-02-26T06:01:46.655Z,1.42
2019-02-26T06:02:47.330Z,1.38
2019-02-26T06:03:46.756Z,1.46
2019-02-26T06:04:46.673Z,1.49
2019-02-26T06:05:46.597Z,1.54
2019-02-26T06:06:44.714Z,1.53
2019-02-26T06:07:44.764Z,1.56
2019-02-26T06:08:44.814Z,1.50
2019-02-26T06:09:45.374Z,1.44
2019-02-26T06:10:44.913Z,1.47
2019-02-26T06:11:49.360Z,1.54
2019-02-26T06:12:46.663Z,1.49
2019-02-26T06:13:45.069Z,1.42
2019-02-26T06:14:45.113Z,1.42
2019-02-26T06:15:45.163Z,1.32
2019-02-26T06:16:46.356Z,1.31
2019-02-26T06:17:45.862Z,1.18
2019-02-26T06:18:46.479Z,1.16
2019-02-26T06:19:45.367Z,1.11
2019-02-26T06:20:45.412Z,1.11
2019-02-26T06:21:47.415Z,1.06
2019-02-26T06:22:45.511Z,1.04
2019-02-26T06:23:45.562Z,1.06
2019-02-26T06:24:45.612Z,1.18
2019-02-26T06:25:45.660Z,1.13
2019-02-26T06:26:45.738Z,1.18
2019-02-26T06:27:45.760Z,1.07
2019-02-26T06:28:48.020Z,1.07
2019-02-26T06:29:45.870Z,1.04
2019-02-26T06:30:45.909Z,1.14
2019-02-26T06:31:46.908Z,1.08
2019-02-26T06:32:46.009Z,1.14
2019-02-26T06:33:47.765Z,1.17
2019-02-26T06:34:46.461Z,1.18
2019-02-26T06:35:46.159Z,1.20
2019-02-26T06:36:46.593Z,1.25
2019-02-26T06:37:46.258Z,1.20
2019-02-26T06:38:49.428Z,1.31
2019-02-26T06:39:50.542Z,1.26
2019-02-26T06:40:48.878Z,1.24
2019-02-26T06:41:47.254Z,1.26
2019-02-26T06:42:46.510Z,1.29
2019-02-26T06:43:49.273Z,1.18
2019-02-26T06:44:48.899Z,1.20
2019-02-26T06:45:47.822Z,1.18
2019-02-26T06:46:46.707Z,1.17
2019-02-26T06:47:48.578Z,1.20
2019-02-26T06:48:47.254Z,1.21
2019-02-26T06:49:48.436Z,1.26
2019-02-26T06:50:46.912Z,1.21
2019-02-26T06:51:47.526Z,1.29
2019-02-26T06:52:47.868Z,1.24
2019-02-26T06:53:49.243Z,1.31
2019-02-26T06:54:50.505Z,1.26
2019-02-26T06:55:47.159Z,1.28
2019-02-26T06:56:49.028Z,1.31
2019-02-26T06:57:50.783Z,1.28
2019-02-26T06:58:47.516Z,1.39
2019-02-26T06:59:47.361Z,1.28
2019-02-26T07:00:48.191Z,1.29
2019-02-26T07:01:47.464Z,1.21
2019-02-26T07:02:47.507Z,1.26
2019-02-26T07:03:47.564Z,1.32
2019-02-26T07:04:47.634Z,1.28
2019-02-26T07:05:47.658Z,1.42
2019-02-26T07:06:47.707Z,1.49
2019-02-26T07:07:47.785Z,1.52
2019-02-26T07:08:48.975Z,1.50
2019-02-26T07:09:47.859Z,1.47
2019-02-26T07:10:47.914Z,1.26
2019-02-26T07:11:47.987Z,1.11
2019-02-26T07:12:50.127Z,1.13
2019-02-26T07:13:48.061Z,1.24
2019-02-26T07:14:49.127Z,1.17
2019-02-26T07:15:48.162Z,1.16
2019-02-26T07:16:48.210Z,1.14
2019-02-26T07:17:48.260Z,1.24
2019-02-26T07:18:48.311Z,1.25
2019-02-26T07:19:48.360Z,1.28
2019-02-26T07:20:50.683Z,1.13
2019-02-26T07:21:50.443Z,1.10
2019-02-26T07:22:49.748Z,1.18
2019-02-26T07:23:48.562Z,1.16
2019-02-26T07:24:49.704Z,1.24
2019-02-26T07:25:48.662Z,1.16
2019-02-26T07:26:48.713Z,1.21
2019-02-26T07:27:48.762Z,1.39
2019-02-26T07:28:50.916Z,1.42
2019-02-26T07:29:51.702Z,1.53
2019-02-26T07:30:48.914Z,1.52
2019-02-26T07:31:49.608Z,1.53
2019-02-26T07:32:49.014Z,1.53
2019-02-26T07:33:51.029Z,1.61
2019-02-26T07:34:50.195Z,1.63
2019-02-26T07:35:49.165Z,1.68
2019-02-26T07:36:50.669Z,1.68
2019-02-26T07:37:49.266Z,1.64
2019-02-26T07:38:51.563Z,1.67
2019-02-26T07:39:51.448Z,1.63
2019-02-26T07:40:49.418Z,1.70
2019-02-26T07:41:51.550Z,1.67
2019-02-26T07:42:49.516Z,1.65
2019-02-26T07:43:51.734Z,1.70
2019-02-26T07:44:49.621Z,1.61
2019-02-26T07:45:51.288Z,1.71
2019-02-26T07:46:49.719Z,1.63
2019-02-26T07:47:51.472Z,1.65
2019-02-26T07:48:53.675Z,1.68
2019-02-26T07:49:49.883Z,1.65
2019-02-26T07:50:50.827Z,1.68
2019-02-26T07:51:49.972Z,1.72
2019-02-26T07:52:52.052Z,1.68
2019-02-26T07:53:51.670Z,1.75
2019-02-26T07:54:51.858Z,1.67
2019-02-26T07:55:50.174Z,1.79
2019-02-26T07:56:52.613Z,1.79
2019-02-26T07:57:51.218Z,1.77
2019-02-26T07:58:50.325Z,1.85
2019-02-26T07:59:50.386Z,1.83
2019-02-26T08:00:52.172Z,1.82
2019-02-26T08:01:50.477Z,1.86
2019-02-26T08:02:52.036Z,1.90
2019-02-26T08:03:51.519Z,1.95
2019-02-26T08:04:50.630Z,2.01
2019-02-26T08:05:50.706Z,2.07
2019-02-26T08:06:52.352Z,2.12
2019-02-26T08:07:51.921Z,2.09
2019-02-26T08:08:50.834Z,2.18
2019-02-26T08:09:51.119Z,2.19
2019-02-26T08:10:52.930Z,2.18
2019-02-26T08:11:50.987Z,2.20
2019-02-26T08:12:51.038Z,2.27
2019-02-26T08:13:51.722Z,2.30
2019-02-26T08:14:51.141Z,2.38
2019-02-26T08:15:52.832Z,2.38
2019-02-26T08:16:53.588Z,2.37
2019-02-26T08:17:56.025Z,2.45
2019-02-26T08:18:52.168Z,2.51
2019-02-26T08:19:51.396Z,2.55
2019-02-26T08:20:52.785Z,2.50
2019-02-26T08:21:53.209Z,2.61
2019-02-26T08:22:53.652Z,2.56
2019-02-26T08:23:52.781Z,2.61
2019-02-26T08:24:52.850Z,2.69
2019-02-26T08:25:52.362Z,2.73
2019-02-26T08:26:51.753Z,2.76
2019-02-26T08:27:53.923Z,2.77
2019-02-26T08:28:51.857Z,2.84
2019-02-26T08:29:54.167Z,2.99
2019-02-26T08:30:52.885Z,3.05
2019-02-26T08:31:54.047Z,2.98
2019-02-26T08:32:54.277Z,2.98
2019-02-26T08:33:52.141Z,3.12
2019-02-26T08:34:52.166Z,3.20
2019-02-26T08:35:55.484Z,3.20
2019-02-26T08:36:52.268Z,3.23
2019-02-26T08:37:52.319Z,3.19
2019-02-26T08:38:56.499Z,3.34
2019-02-26T08:39:52.423Z,3.34
2019-02-26T08:40:52.478Z,3.37
2019-02-26T08:41:52.527Z,3.44
2019-02-26T08:42:52.586Z,3.50
2019-02-26T08:43:54.571Z,3.54
2019-02-26T08:44:54.207Z,3.64
2019-02-26T08:45:52.734Z,3.67
2019-02-26T08:46:52.791Z,3.68
2019-02-26T08:47:52.838Z,3.71
2019-02-26T08:48:52.891Z,3.74
2019-02-26T08:49:52.943Z,3.77
2019-02-26T08:50:53.017Z,3.78
2019-02-26T08:51:53.046Z,3.90
2019-02-26T08:52:55.546Z,3.84
2019-02-26T08:53:55.271Z,3.89
2019-02-26T08:54:53.203Z,3.96
2019-02-26T08:55:53.615Z,4.13
2019-02-26T08:56:53.308Z,4.13
2019-02-26T08:57:54.021Z,4.24
2019-02-26T08:58:53.413Z,4.24
2019-02-26T08:59:54.626Z,4.39
2019-02-26T09:00:53.518Z,4.47
2019-02-26T09:01:53.569Z,4.51
2019-02-26T09:02:56.013Z,4.51
2019-02-26T09:03:55.715Z,4.61
2019-02-26T09:04:53.726Z,4.64
2019-02-26T09:05:54.390Z,4.68
2019-02-26T09:06:54.681Z,4.83
2019-02-26T09:07:53.885Z,4.93
2019-02-26T09:08:55.072Z,4.96
2019-02-26T09:09:55.361Z,5.09
2019-02-26T09:10:54.068Z,5.11
2019-02-26T09:11:55.920Z,5.22
2019-02-26T09:12:54.205Z,5.27
2019-02-26T09:13:56.329Z,5.47
2019-02-26T09:14:54.256Z,5.47
2019-02-26T09:15:55.590Z,5.59
2019-02-26T09:16:56.523Z,5.69
2019-02-26T09:17:54.423Z,5.73
2019-02-26T09:18:54.464Z,5.78
2019-02-26T09:20:06.347Z,5.77
2019-02-26T09:20:54.572Z,5.93
2019-02-26T09:21:54.839Z,5.92
2019-02-26T09:22:56.496Z,5.96
2019-02-26T09:23:57.013Z,5.84
2019-02-26T09:24:56.837Z,6.05
2019-02-26T09:25:57.126Z,6.05
2019-02-26T09:26:57.495Z,6.17
2019-02-26T09:27:54.944Z,6.08
2019-02-26T09:28:57.055Z,6.19
2019-02-26T09:29:55.050Z,6.16
2019-02-26T09:30:56.333Z,6.32
2019-02-26T09:31:55.157Z,6.30
2019-02-26T09:32:55.212Z,6.33
2019-02-26T09:33:55.263Z,6.30
2019-02-26T09:34:57.397Z,6.39
2019-02-26T09:35:56.732Z,6.38
2019-02-26T09:36:58.082Z,6.43
2019-02-26T09:37:59.042Z,6.58
2019-02-26T09:38:55.531Z,6.68
2019-02-26T09:39:57.376Z,6.73
2019-02-26T09:40:57.090Z,6.75
2019-02-26T09:41:57.562Z,6.78
2019-02-26T09:42:59.481Z,6.90
2019-02-26T09:43:55.824Z,6.93
2019-02-26T09:44:57.652Z,6.99
2019-02-26T09:45:55.907Z,6.99
2019-02-26T09:46:57.820Z,7.23
2019-02-26T09:47:57.948Z,7.16
2019-02-26T09:48:57.904Z,7.19
2019-02-26T09:49:57.907Z,7.42
2019-02-26T09:50:56.178Z,7.47
2019-02-26T09:51:56.812Z,7.54
2019-02-26T09:52:58.962Z,7.58
2019-02-26T09:53:57.182Z,7.67
2019-02-26T09:54:56.453Z,7.77
2019-02-26T09:55:56.446Z,7.66
2019-02-26T09:56:57.048Z,7.84
2019-02-26T09:57:56.555Z,7.86
2019-02-26T09:58:56.610Z,7.95
2019-02-26T09:59:58.195Z,7.94
2019-02-26T10:00:56.719Z,8.04
2019-02-26T10:01:58.773Z,8.07
2019-02-26T10:02:56.826Z,8.10
2019-02-26T10:03:58.342Z,8.13
2019-02-26T10:04:56.936Z,8.09
2019-02-26T10:05:57.928Z,8.27
2019-02-26T10:06:57.043Z,8.31
2019-02-26T10:07:59.892Z,8.36
2019-02-26T10:08:57.152Z,8.39
2019-02-26T10:09:57.206Z,8.36
2019-02-26T10:10:59.683Z,8.43
2019-02-26T10:11:57.316Z,8.49
2019-02-26T10:12:59.892Z,8.60
2019-02-26T10:13:57.430Z,8.63
2019-02-26T10:14:59.661Z,8.65
2019-02-26T10:15:59.265Z,8.67
2019-02-26T10:16:58.229Z,8.71
2019-02-26T10:17:59.573Z,8.83
2019-02-26T10:18:57.701Z,8.76
2019-02-26T10:19:59.361Z,8.91
2019-02-26T10:20:57.814Z,8.94
2019-02-26T10:22:00.085Z,8.97
2019-02-26T10:23:00.779Z,9.00
2019-02-26T10:23:59.440Z,9.19
2019-02-26T10:24:58.031Z,9.27
2019-02-26T10:26:00.316Z,9.23
2019-02-26T10:27:00.817Z,9.27
2019-02-26T10:28:03.047Z,9.34
2019-02-26T10:29:04.135Z,9.40
2019-02-26T10:29:58.308Z,9.50
2019-02-26T10:31:01.770Z,9.45
2019-02-26T10:31:58.418Z,9.68
2019-02-26T10:33:01.762Z,9.74
2019-02-26T10:33:58.548Z,9.68
2019-02-26T10:34:58.585Z,9.78
2019-02-26T10:35:58.641Z,9.80
2019-02-26T10:36:58.714Z,9.83
2019-02-26T10:38:00.360Z,9.85
2019-02-26T10:39:00.729Z,9.95
2019-02-26T10:39:58.863Z,9.96
2019-02-26T10:40:59.770Z,10.11
2019-02-26T10:42:01.950Z,10.07
2019-02-26T10:42:59.030Z,10.29
2019-02-26T10:43:59.088Z,10.32
2019-02-26T10:44:59.142Z,10.32
2019-02-26T10:45:59.204Z,10.38
2019-02-26T10:47:02.696Z,10.38
2019-02-26T10:48:01.583Z,10.55
2019-02-26T10:48:59.366Z,10.63
2019-02-26T10:49:59.423Z,10.78
2019-02-26T10:50:59.478Z,10.72
2019-02-26T10:51:59.534Z,10.81
2019-02-26T10:53:06.754Z,10.94
2019-02-26T10:53:59.954Z,10.87
2019-02-26T10:54:59.713Z,10.98
2019-02-26T10:55:59.759Z,10.95
2019-02-26T10:57:00.359Z,11.11
2019-02-26T10:58:04.722Z,11.30
2019-02-26T10:59:03.478Z,11.30
2019-02-26T11:00:02.079Z,11.39
2019-02-26T11:01:02.483Z,11.53
2019-02-26T11:02:01.434Z,11.60
2019-02-26T11:03:00.158Z,11.57
2019-02-26T11:04:00.210Z,11.69
2019-02-26T11:05:00.373Z,11.77
2019-02-26T11:06:00.322Z,11.88
2019-02-26T11:07:04.172Z,12.01
2019-02-26T11:08:02.913Z,12.23
2019-02-26T11:09:01.825Z,12.36
2019-02-26T11:10:00.550Z,12.48
2019-02-26T11:11:00.610Z,12.48
2019-02-26T11:12:02.904Z,12.59
2019-02-26T11:13:00.730Z,12.63
2019-02-26T11:14:00.787Z,12.67
2019-02-26T11:15:01.610Z,12.69
2019-02-26T11:16:02.968Z,12.71
2019-02-26T11:17:00.949Z,12.71
2019-02-26T11:18:01.006Z,12.85
2019-02-26T11:19:02.396Z,13.03
2019-02-26T11:20:01.797Z,13.09
2019-02-26T11:21:01.178Z,13.12
2019-02-26T11:22:04.258Z,13.25
2019-02-26T11:23:03.447Z,13.28
2019-02-26T11:24:03.513Z,13.39
2019-02-26T11:25:01.602Z,13.51
2019-02-26T11:26:01.463Z,13.57
2019-02-26T11:27:01.521Z,13.69
2019-02-26T11:28:02.561Z,13.90
2019-02-26T11:29:01.638Z,13.96
2019-02-26T11:30:04.444Z,14.31
2019-02-26T11:31:01.755Z,14.59
2019-02-26T11:32:04.243Z,14.87
2019-02-26T11:33:03.105Z,15.48
2019-02-26T11:34:04.060Z,16.18
2019-02-26T11:35:02.700Z,17.10
2019-02-26T11:36:03.040Z,17.98
2019-02-26T11:37:03.365Z,18.20
2019-02-26T11:38:02.167Z,19.34
2019-02-26T11:39:04.268Z,19.80
2019-02-26T11:40:03.604Z,20.30
2019-02-26T11:41:02.348Z,21.30
2019-02-26T11:42:02.406Z,21.85
2019-02-26T11:43:11.213Z,22.31
2019-02-26T11:44:07.336Z,22.46
2019-02-26T11:45:02.593Z,22.94
2019-02-26T11:46:03.932Z,23.26
2019-02-26T11:47:02.716Z,23.07
2019-02-26T11:48:03.698Z,23.47
2019-02-26T11:49:02.839Z,23.31
2019-02-26T11:50:06.497Z,22.24
2019-02-26T11:51:02.965Z,22.54
2019-02-26T11:52:04.512Z,23.37
2019-02-26T11:53:03.094Z,23.54
2019-02-26T11:54:05.076Z,24.00
2019-02-26T11:55:05.932Z,23.87
2019-02-26T11:56:03.283Z,23.25
2019-02-26T11:57:04.518Z,22.23
2019-02-26T11:58:05.590Z,21.37
2019-02-26T11:59:06.547Z,21.08
2019-02-26T12:00:04.509Z,21.13
2019-02-26T12:01:03.600Z,21.21
2019-02-26T12:02:04.407Z,21.11
2019-02-26T12:03:03.728Z,21.27
2019-02-26T12:04:06.038Z,21.06
2019-02-26T12:05:05.619Z,21.49
2019-02-26T12:06:06.796Z,21.51
2019-02-26T12:07:06.232Z,21.67
2019-02-26T12:08:04.054Z,21.83
2019-02-26T12:09:06.097Z,21.33
2019-02-26T12:10:09.534Z,20.90
2019-02-26T12:11:06.593Z,20.75
2019-02-26T12:12:06.176Z,20.79
2019-02-26T12:13:04.374Z,20.72
2019-02-26T12:14:04.439Z,20.82
2019-02-26T12:15:06.634Z,21.00
2019-02-26T12:16:04.569Z,21.12
2019-02-26T12:17:04.637Z,21.09
2019-02-26T12:18:04.697Z,21.51
2019-02-26T12:19:06.098Z,21.82
2019-02-26T12:20:04.828Z,22.02
2019-02-26T12:21:05.991Z,22.06
2019-02-26T12:22:06.087Z,21.81
2019-02-26T12:23:07.796Z,21.63
2019-02-26T12:24:06.630Z,21.55
2019-02-26T12:25:08.409Z,21.43
2019-02-26T12:26:05.215Z,22.05
2019-02-26T12:27:07.109Z,22.17
2019-02-26T12:28:08.029Z,22.60
2019-02-26T12:29:05.410Z,23.03
2019-02-26T12:30:07.231Z,23.37
2019-02-26T12:31:08.072Z,23.14
2019-02-26T12:32:05.605Z,22.93
2019-02-26T12:33:09.184Z,22.29
2019-02-26T12:34:05.733Z,21.81
2019-02-26T12:35:08.170Z,21.77
2019-02-26T12:36:07.471Z,21.94
2019-02-26T12:37:08.746Z,21.81
2019-02-26T12:38:17.332Z,22.12
2019-02-26T12:39:06.060Z,22.06
2019-02-26T12:40:06.124Z,22.42
2019-02-26T12:41:09.014Z,22.30
2019-02-26T12:42:07.349Z,22.46
2019-02-26T12:43:08.423Z,22.45
2019-02-26T12:44:10.872Z,22.84
2019-02-26T12:45:09.356Z,22.44
2019-02-26T12:46:08.377Z,22.57
2019-02-26T12:47:06.581Z,23.11
2019-02-26T12:48:09.865Z,22.91
2019-02-26T12:49:08.650Z,22.45
2019-02-26T12:50:09.687Z,23.32
2019-02-26T12:51:07.793Z,23.39
2019-02-26T12:52:06.903Z,23.11
2019-02-26T12:53:09.540Z,22.97
2019-02-26T12:54:09.363Z,23.42
2019-02-26T12:55:08.037Z,23.29
2019-02-26T12:56:08.813Z,23.01
2019-02-26T12:57:07.232Z,23.00
2019-02-26T12:58:07.295Z,23.01
2019-02-26T12:59:07.739Z,22.91
2019-02-26T13:00:10.666Z,22.86
2019-02-26T13:01:07.490Z,23.01
2019-02-26T13:02:10.046Z,23.18
2019-02-26T13:03:09.358Z,23.11
2019-02-26T13:04:09.569Z,23.07
2019-02-26T13:05:10.219Z,22.94
2019-02-26T13:06:11.393Z,22.94
2019-02-26T13:07:09.311Z,22.88
2019-02-26T13:08:10.116Z,23.19
2019-02-26T13:09:08.012Z,23.19
2019-02-26T13:10:08.110Z,23.42
2019-02-26T13:11:11.207Z,23.41
2019-02-26T13:12:08.210Z,24.00
2019-02-26T13:13:08.295Z,24.09
2019-02-26T13:14:08.338Z,24.23
2019-02-26T13:15:09.762Z,23.86
2019-02-26T13:16:08.468Z,24.06